createdAt,value
2022-08-22T00:08:39.311Z,28.10
2022-08-22T00:14:01.483Z,28.10
2022-08-22T00:19:22.048Z,28.10
2022-08-22T00:24:42.216Z,28.10
2022-08-22T00:30:02.482Z,28.00
2022-08-22T00:35:23.169Z,28.00
2022-08-22T00:40:44.002Z,28.10
2022-08-22T00:46:04.293Z,28.00
2022-08-22T00:51:24.413Z,28.10
2022-08-22T00:56:45.207Z,28.00
2022-08-22T01:02:06.166Z,28.00
2022-08-22T01:07:30.591Z,27.90
2022-08-22T01:12:58.696Z,28.10
2022-08-22T01:18:18.728Z,28.10
2022-08-22T01:23:40.637Z,28.00
2022-08-22T01:29:00.490Z,28.00
2022-08-22T01:34:20.546Z,28.00
2022-08-22T01:39:40.959Z,28.00
2022-08-22T01:45:00.986Z,28.00
2022-08-22T01:50:21.179Z,28.00
2022-08-22T01:55:41.422Z,28.00
2022-08-22T02:01:01.543Z,28.00
2022-08-22T02:06:21.700Z,28.00
2022-08-22T02:11:41.779Z,28.00
2022-08-22T02:17:01.964Z,28.00
2022-08-22T02:22:22.043Z,28.00
2022-08-22T02:27:42.191Z,28.00
2022-08-22T02:33:02.249Z,27.90
2022-08-22T02:38:22.563Z,27.90
2022-08-22T02:43:42.574Z,27.90
2022-08-22T02:49:03.297Z,27.90
2022-08-22T02:54:23.424Z,27.90
2022-08-22T02:59:43.720Z,27.90
2022-08-22T03:05:03.811Z,27.90
2022-08-22T03:10:24.472Z,27.90
2022-08-22T03:15:48.624Z,27.90
2022-08-22T03:21:09.688Z,27.90
2022-08-22T03:26:29.842Z,27.90
2022-08-22T03:31:50.026Z,27.90
2022-08-22T03:37:10.230Z,27.80
2022-08-22T03:42:30.370Z,27.80
2022-08-22T03:47:50.646Z,27.80
2022-08-22T03:53:19.154Z,27.80
2022-08-22T03:58:39.406Z,27.90
2022-08-22T04:03:59.552Z,27.90
2022-08-22T04:09:19.692Z,27.80
2022-08-22T04:14:40.429Z,27.80
2022-08-22T04:20:00.471Z,27.80
2022-08-22T04:25:20.655Z,27.80
2022-08-22T04:30:40.745Z,27.90
2022-08-22T04:36:00.926Z,27.90
2022-08-22T04:41:21.172Z,27.90
2022-08-22T04:46:41.547Z,27.90
2022-08-22T04:52:01.700Z,27.90
2022-08-22T04:57:21.777Z,28.00
2022-08-22T05:02:41.824Z,27.90
2022-08-22T05:08:04.589Z,27.90
2022-08-22T05:13:24.622Z,27.90
2022-08-22T05:18:44.691Z,27.90
2022-08-22T05:24:04.845Z,27.90
2022-08-22T05:29:25.059Z,27.90
2022-08-22T05:34:45.086Z,27.90
2022-08-22T05:40:05.290Z,27.90
2022-08-22T05:45:25.280Z,27.80
2022-08-22T05:50:49.222Z,27.90
2022-08-22T05:56:10.620Z,27.80
2022-08-22T06:01:30.829Z,27.80
2022-08-22T06:06:50.911Z,27.90
2022-08-22T06:12:16.470Z,27.80
2022-08-22T06:17:42.297Z,27.80
2022-08-22T06:23:02.462Z,27.80
2022-08-22T06:28:22.664Z,27.80
2022-08-22T06:33:45.789Z,27.80
2022-08-22T06:39:05.780Z,27.80
2022-08-22T06:44:25.868Z,27.80
2022-08-22T06:49:46.000Z,27.80
2022-08-22T06:55:06.232Z,27.90
2022-08-22T07:00:26.437Z,27.90
2022-08-22T07:05:46.644Z,27.80
2022-08-22T07:11:06.680Z,27.80
2022-08-22T07:16:26.990Z,27.80
2022-08-22T07:21:47.050Z,27.80
2022-08-22T07:27:07.035Z,27.80
2022-08-22T07:32:27.800Z,27.80
2022-08-22T07:37:47.686Z,27.90
2022-08-22T07:43:07.916Z,27.90
2022-08-22T07:48:27.964Z,27.90
2022-08-22T07:53:48.023Z,27.90
2022-08-22T07:59:13.013Z,27.90
2022-08-22T08:04:36.846Z,27.90
2022-08-22T08:09:59.503Z,27.90
2022-08-22T08:15:19.670Z,27.90
2022-08-22T08:20:39.712Z,27.80
2022-08-22T08:25:59.948Z,27.80
2022-08-22T08:31:20.080Z,27.80
2022-08-22T08:36:40.258Z,27.80
2022-08-22T08:42:00.283Z,27.80
2022-08-22T08:47:20.558Z,27.80
2022-08-22T08:52:41.192Z,27.80
2022-08-22T08:58:03.273Z,27.80
2022-08-22T09:03:31.010Z,27.80
2022-08-22T09:08:55.503Z,27.80
2022-08-22T09:14:15.688Z,27.80
2022-08-22T09:19:36.005Z,27.80
2022-08-22T09:24:56.248Z,27.80
2022-08-22T09:30:16.449Z,27.80
2022-08-22T09:35:36.569Z,27.70
2022-08-22T09:40:56.803Z,27.80
2022-08-22T09:46:20.478Z,27.70
2022-08-22T09:51:40.723Z,27.70
2022-08-22T09:57:00.829Z,27.70
2022-08-22T10:02:21.423Z,27.80
2022-08-22T10:07:41.752Z,27.80
2022-08-22T10:13:02.033Z,27.80
2022-08-22T10:18:22.541Z,27.80
2022-08-22T10:23:46.203Z,27.80
2022-08-22T10:29:06.457Z,27.80
2022-08-22T10:34:26.584Z,27.80
2022-08-22T10:39:47.304Z,27.80
2022-08-22T10:45:07.295Z,27.90
2022-08-22T10:50:31.120Z,27.90
2022-08-22T10:55:51.552Z,27.90
2022-08-22T11:01:37.094Z,27.90
2022-08-22T11:06:52.427Z,27.90
2022-08-22T11:12:12.497Z,28.00
2022-08-22T11:17:35.532Z,28.00
2022-08-22T11:23:01.023Z,28.10
2022-08-22T11:28:21.624Z,28.00
2022-08-22T11:33:47.369Z,28.10
2022-08-22T11:39:10.004Z,28.20
2022-08-22T11:44:50.805Z,28.20
2022-08-22T11:50:13.372Z,28.10
2022-08-22T11:55:34.524Z,28.20
2022-08-22T12:00:55.026Z,28.20
2022-08-22T12:06:15.299Z,28.20
2022-08-22T12:11:35.408Z,28.20
2022-08-22T12:16:55.510Z,28.20
2022-08-22T12:22:15.548Z,28.30
2022-08-22T12:27:36.870Z,28.30
2022-08-22T12:32:57.214Z,28.30
2022-08-22T12:38:29.411Z,28.30
2022-08-22T12:43:50.102Z,28.40
2022-08-22T12:49:10.210Z,28.40
2022-08-22T12:54:30.267Z,28.40
2022-08-22T12:59:50.377Z,28.40
2022-08-22T13:05:10.634Z,28.50
2022-08-22T13:10:30.662Z,28.50
2022-08-22T13:15:53.730Z,28.50
2022-08-22T13:21:14.562Z,28.50
2022-08-22T13:26:37.677Z,28.50
2022-08-22T13:32:00.752Z,28.50
2022-08-22T13:37:24.858Z,28.50
2022-08-22T13:42:47.884Z,28.50
2022-08-22T13:48:08.675Z,28.50
2022-08-22T13:53:29.236Z,28.50
2022-08-22T13:58:49.423Z,28.50
2022-08-22T14:04:17.528Z,28.60
2022-08-22T14:09:53.018Z,28.50
2022-08-22T14:15:14.823Z,28.50
2022-08-22T14:20:35.023Z,28.50
2022-08-22T14:25:55.678Z,28.50
2022-08-22T14:31:17.460Z,28.60
2022-08-22T14:36:40.591Z,28.60
2022-08-22T14:42:03.972Z,28.60
2022-08-22T14:47:54.220Z,28.60
2022-08-22T14:53:04.706Z,28.60
2022-08-22T14:58:26.331Z,28.60
2022-08-22T15:03:47.919Z,28.60
2022-08-22T15:09:08.335Z,28.60
2022-08-22T15:14:28.611Z,28.60
2022-08-22T15:19:48.576Z,28.60
2022-08-22T15:25:12.287Z,28.60
2022-08-22T15:30:33.414Z,28.60
2022-08-22T15:35:53.975Z,28.60
2022-08-22T15:41:14.160Z,28.70
2022-08-22T15:46:35.454Z,28.70
2022-08-22T15:51:55.504Z,28.70
2022-08-22T15:57:16.091Z,28.70
2022-08-22T16:02:36.214Z,28.70
2022-08-22T16:07:57.000Z,28.70
2022-08-22T16:13:17.093Z,28.70
2022-08-22T16:18:37.172Z,28.80
2022-08-22T16:23:57.360Z,28.80
2022-08-22T16:29:18.333Z,28.80
2022-08-22T16:34:38.291Z,28.90
2022-08-22T16:39:58.656Z,28.90
2022-08-22T16:45:18.592Z,28.90
2022-08-22T16:50:38.915Z,29.00
2022-08-22T16:55:59.100Z,29.00
2022-08-22T17:01:19.260Z,29.00
2022-08-22T17:06:39.444Z,29.00
2022-08-22T17:11:59.715Z,29.10
2022-08-22T17:17:19.855Z,29.10
2022-08-22T17:22:40.044Z,29.00
2022-08-22T17:28:00.328Z,29.00
2022-08-22T17:33:20.184Z,29.00
2022-08-22T17:38:47.889Z,29.00
2022-08-22T17:44:08.000Z,29.00
2022-08-22T17:49:28.303Z,28.90
2022-08-22T17:54:48.570Z,28.90
2022-08-22T18:00:08.866Z,28.90
2022-08-22T18:05:28.876Z,28.90
2022-08-22T18:10:49.586Z,28.80
2022-08-22T18:16:09.747Z,28.80
2022-08-22T18:21:29.897Z,28.80
2022-08-22T18:26:50.043Z,28.80
2022-08-22T18:32:11.137Z,28.80
2022-08-22T18:37:31.525Z,28.70
2022-08-22T18:42:51.837Z,28.70
2022-08-22T18:48:11.845Z,28.70
2022-08-22T18:53:32.017Z,28.70
2022-08-22T18:58:58.888Z,28.70
2022-08-22T19:04:26.316Z,28.70
2022-08-22T19:09:46.456Z,28.70
2022-08-22T19:15:06.644Z,28.70
2022-08-22T19:20:27.855Z,28.70
2022-08-22T19:25:48.034Z,28.70
2022-08-22T19:31:08.123Z,28.70
2022-08-22T19:36:28.327Z,28.60
2022-08-22T19:41:48.499Z,28.60
2022-08-22T19:47:08.644Z,28.60
2022-08-22T19:52:28.774Z,28.60
2022-08-22T19:57:48.942Z,28.60
2022-08-22T20:03:09.114Z,28.60
2022-08-22T20:08:29.268Z,28.60
2022-08-22T20:13:49.429Z,28.60
2022-08-22T20:19:09.901Z,28.60
2022-08-22T20:24:30.294Z,28.60
2022-08-22T20:29:50.446Z,28.60
2022-08-22T20:35:10.616Z,28.60
2022-08-22T20:40:54.920Z,28.60
2022-08-22T20:46:17.223Z,28.60
2022-08-22T20:51:37.291Z,28.60
2022-08-22T20:56:57.505Z,28.60
2022-08-22T21:02:17.728Z,28.60
2022-08-22T21:07:37.960Z,28.60
2022-08-22T21:12:58.148Z,28.60
2022-08-22T21:18:18.254Z,28.60
2022-08-22T21:23:38.257Z,28.60
2022-08-22T21:28:58.568Z,28.60
2022-08-22T21:34:18.727Z,28.60
2022-08-22T21:39:39.104Z,28.50
2022-08-22T21:44:58.918Z,28.60
2022-08-22T21:50:19.047Z,28.50
2022-08-22T21:55:39.211Z,28.50
2022-08-22T22:00:59.497Z,28.50
2022-08-22T22:06:19.576Z,28.50
2022-08-22T22:11:39.814Z,28.50
2022-08-22T22:16:59.944Z,28.50
2022-08-22T22:22:20.019Z,28.50
2022-08-22T22:27:40.270Z,28.50
2022-08-22T22:33:00.390Z,28.50
2022-08-22T22:38:23.886Z,28.50
2022-08-22T22:43:44.298Z,28.50
2022-08-22T22:49:04.344Z,28.50
2022-08-22T22:54:27.037Z,28.50
2022-08-22T22:59:47.212Z,28.50
2022-08-22T23:05:08.884Z,28.50
2022-08-22T23:10:29.569Z,28.50
2022-08-22T23:15:49.699Z,28.50
2022-08-22T23:21:09.811Z,28.50
2022-08-22T23:26:29.993Z,28.50
2022-08-22T23:31:49.975Z,28.50
2022-08-22T23:37:10.216Z,28.50
2022-08-22T23:42:30.297Z,28.50
2022-08-22T23:47:50.450Z,28.50
2022-08-22T23:53:10.541Z,28.50
2022-08-22T23:58:30.712Z,28.50
